createdAt,value
2018-05-06T00:01:56.665Z,48.90
2018-05-06T00:04:01.864Z,49.00
2018-05-06T00:06:06.080Z,49.10
2018-05-06T00:08:10.067Z,49.20
2018-05-06T00:10:14.276Z,49.30
2018-05-06T00:12:18.246Z,49.10
2018-05-06T00:14:23.419Z,49.00
2018-05-06T00:16:27.652Z,49.20
2018-05-06T00:18:31.585Z,49.00
2018-05-06T00:20:35.492Z,48.90
2018-05-06T00:22:41.030Z,48.60
2018-05-06T00:24:47.049Z,48.70
2018-05-06T00:26:50.925Z,48.80
2018-05-06T00:28:56.019Z,49.10
2018-05-06T00:31:00.155Z,49.00
2018-05-06T00:33:04.051Z,48.90
2018-05-06T00:35:08.651Z,48.80
2018-05-06T00:37:12.666Z,48.90
2018-05-06T00:39:16.597Z,49.60
2018-05-06T00:41:21.265Z,48.90
2018-05-06T00:43:25.077Z,48.80
2018-05-06T00:45:28.933Z,48.80
2018-05-06T00:47:36.399Z,48.70
2018-05-06T00:49:40.211Z,48.70
2018-05-06T00:51:43.981Z,48.80
2018-05-06T00:53:48.091Z,48.80
2018-05-06T00:55:51.872Z,48.70
2018-05-06T00:57:55.669Z,48.80
2018-05-06T00:59:59.837Z,49.10
2018-05-06T01:02:03.813Z,49.30
2018-05-06T01:04:07.618Z,49.40
2018-05-06T01:06:11.971Z,49.20
2018-05-06T01:08:15.784Z,49.20
2018-05-06T01:10:19.848Z,49.10
2018-05-06T01:12:23.765Z,49.20
2018-05-06T01:14:29.108Z,49.30
2018-05-06T01:16:33.760Z,49.30
2018-05-06T01:18:38.950Z,49.20
2018-05-06T01:20:42.820Z,49.20
2018-05-06T01:22:48.216Z,49.40
2018-05-06T01:24:52.383Z,49.30
2018-05-06T01:26:56.228Z,49.40
2018-05-06T01:29:00.118Z,49.30
2018-05-06T01:31:04.312Z,49.40
2018-05-06T01:33:08.515Z,49.40
2018-05-06T01:35:12.354Z,49.40
2018-05-06T01:37:16.148Z,49.30
2018-05-06T01:39:20.094Z,49.40
2018-05-06T01:41:23.910Z,49.30
2018-05-06T01:43:28.538Z,49.30
2018-05-06T01:45:33.163Z,49.30
2018-05-06T01:47:37.717Z,49.30
2018-05-06T01:49:41.906Z,49.30
2018-05-06T01:51:46.788Z,49.20
2018-05-06T01:53:50.663Z,49.20
2018-05-06T01:55:55.821Z,49.20
2018-05-06T01:57:59.656Z,48.90
2018-05-06T02:00:06.337Z,48.90
2018-05-06T02:02:10.155Z,48.80
2018-05-06T02:04:14.090Z,48.60
2018-05-06T02:06:17.985Z,48.70
2018-05-06T02:08:22.259Z,48.70
2018-05-06T02:10:26.157Z,48.60
2018-05-06T02:12:29.938Z,48.60
2018-05-06T02:14:34.317Z,48.40
2018-05-06T02:16:38.144Z,48.20
2018-05-06T02:18:42.032Z,48.80
2018-05-06T02:20:46.484Z,48.10
2018-05-06T02:22:51.704Z,48.20
2018-05-06T02:24:56.624Z,48.00
2018-05-06T02:27:00.564Z,47.90
2018-05-06T02:29:04.456Z,48.10
2018-05-06T02:31:08.282Z,48.00
2018-05-06T02:33:13.420Z,47.90
2018-05-06T02:35:18.020Z,48.50
2018-05-06T02:37:23.640Z,48.00
2018-05-06T02:39:29.355Z,48.30
2018-05-06T02:41:35.296Z,48.10
2018-05-06T02:43:40.016Z,48.20
2018-05-06T02:45:46.183Z,47.90
2018-05-06T02:47:51.273Z,47.90
2018-05-06T02:49:55.088Z,47.90
2018-05-06T02:51:59.273Z,47.80
2018-05-06T02:54:03.138Z,47.80
2018-05-06T02:56:07.694Z,47.70
2018-05-06T02:58:12.906Z,47.60
2018-05-06T03:00:16.864Z,47.60
2018-05-06T03:02:20.708Z,47.70
2018-05-06T03:04:26.844Z,47.80
2018-05-06T03:06:30.602Z,47.70
2018-05-06T03:08:34.487Z,47.60
2018-05-06T03:10:38.781Z,47.60
2018-05-06T03:12:43.544Z,47.50
2018-05-06T03:14:47.385Z,47.40
2018-05-06T03:16:53.423Z,47.30
2018-05-06T03:18:57.228Z,47.50
2018-05-06T03:21:01.084Z,47.40
2018-05-06T03:23:05.702Z,47.10
2018-05-06T03:25:09.642Z,47.00
2018-05-06T03:27:13.559Z,46.90
2018-05-06T03:29:18.014Z,46.80
2018-05-06T03:31:21.885Z,46.60
2018-05-06T03:33:25.714Z,46.40
2018-05-06T03:35:30.881Z,46.30
2018-05-06T03:37:35.625Z,46.30
2018-05-06T03:39:40.197Z,46.30
2018-05-06T03:41:44.255Z,46.00
2018-05-06T03:43:48.362Z,46.10
2018-05-06T03:45:52.263Z,45.70
2018-05-06T03:47:56.077Z,46.10
2018-05-06T03:50:00.715Z,46.30
2018-05-06T03:52:04.544Z,46.40
2018-05-06T03:54:09.371Z,46.30
2018-05-06T03:56:23.548Z,45.90
2018-05-06T03:58:39.386Z,46.20
2018-05-06T04:00:43.952Z,46.20
2018-05-06T04:02:48.484Z,46.20
2018-05-06T04:04:53.671Z,46.30
2018-05-06T04:06:57.927Z,46.20
2018-05-06T04:09:02.445Z,46.30
2018-05-06T04:11:07.090Z,46.40
2018-05-06T04:13:11.758Z,46.40
2018-05-06T04:15:15.731Z,46.40
2018-05-06T04:17:19.641Z,46.30
2018-05-06T04:19:23.892Z,46.40
2018-05-06T04:21:27.739Z,45.80
2018-05-06T04:23:31.539Z,45.60
2018-05-06T04:25:36.331Z,45.50
2018-05-06T04:27:40.262Z,45.40
2018-05-06T04:29:44.897Z,44.60
2018-05-06T04:31:49.893Z,44.60
2018-05-06T04:33:53.773Z,44.60
2018-05-06T04:35:57.665Z,44.40
2018-05-06T04:38:02.157Z,44.30
2018-05-06T04:40:06.053Z,44.00
2018-05-06T04:42:10.614Z,43.40
2018-05-06T04:44:14.610Z,43.40
2018-05-06T04:46:18.472Z,43.60
2018-05-06T04:48:23.089Z,43.50
2018-05-06T04:50:27.712Z,43.00
2018-05-06T04:52:32.662Z,42.40
2018-05-06T04:54:37.367Z,42.10
2018-05-06T04:56:41.952Z,42.20
2018-05-06T04:58:46.071Z,42.10
2018-05-06T05:00:49.931Z,41.80
2018-05-06T05:02:53.705Z,41.90
2018-05-06T05:04:57.517Z,41.50
2018-05-06T05:07:02.208Z,40.90
2018-05-06T05:09:06.401Z,40.90
2018-05-06T05:11:10.212Z,39.90
2018-05-06T05:13:14.773Z,39.80
2018-05-06T05:15:19.693Z,40.60
2018-05-06T05:17:23.540Z,40.10
2018-05-06T05:19:27.382Z,39.50
2018-05-06T05:21:31.468Z,39.60
2018-05-06T05:23:35.240Z,38.70
2018-05-06T05:25:39.210Z,38.40
2018-05-06T05:27:43.516Z,37.80
2018-05-06T05:29:47.440Z,37.50
2018-05-06T05:31:51.241Z,37.30
2018-05-06T05:33:55.470Z,36.90
2018-05-06T05:36:00.073Z,36.80
2018-05-06T05:38:03.860Z,36.80
2018-05-06T05:40:08.041Z,36.70
2018-05-06T05:42:11.897Z,35.40
2018-05-06T05:44:15.707Z,35.20
2018-05-06T05:46:23.029Z,35.80
2018-05-06T05:48:26.844Z,35.80
2018-05-06T05:50:30.622Z,35.10
2018-05-06T05:52:39.263Z,34.80
2018-05-06T05:54:43.133Z,34.60
2018-05-06T05:56:46.927Z,34.80
2018-05-06T05:58:51.472Z,34.30
2018-05-06T06:00:55.335Z,34.30
2018-05-06T06:02:59.118Z,34.10
2018-05-06T06:05:05.225Z,33.60
2018-05-06T06:07:09.836Z,34.40
2018-05-06T06:09:14.653Z,34.10
2018-05-06T06:11:18.776Z,34.00
2018-05-06T06:13:23.410Z,34.00
2018-05-06T06:15:28.026Z,33.50
2018-05-06T06:17:32.186Z,33.40
2018-05-06T06:19:35.996Z,33.60
2018-05-06T06:21:40.785Z,32.80
2018-05-06T06:23:44.712Z,32.80
2018-05-06T06:25:48.501Z,33.00
2018-05-06T06:27:52.276Z,33.10
2018-05-06T06:29:59.261Z,31.90
2018-05-06T06:32:03.372Z,32.10
2018-05-06T06:34:07.332Z,31.60
2018-05-06T06:36:11.481Z,32.20
2018-05-06T06:38:16.162Z,31.40
2018-05-06T06:40:20.061Z,31.40
2018-05-06T06:42:24.218Z,31.40
2018-05-06T06:44:28.313Z,31.30
2018-05-06T06:46:33.002Z,30.50
2018-05-06T06:48:36.871Z,30.50
2018-05-06T06:50:40.923Z,30.50
2018-05-06T06:52:44.849Z,29.90
2018-05-06T06:54:50.302Z,30.00
2018-05-06T06:56:55.203Z,30.10
2018-05-06T06:58:59.227Z,30.10
2018-05-06T07:01:04.920Z,30.40
2018-05-06T07:03:08.865Z,30.40
2018-05-06T07:05:12.676Z,30.70
2018-05-06T07:07:17.901Z,30.60
2018-05-06T07:09:21.727Z,31.10
2018-05-06T07:11:25.758Z,30.00
2018-05-06T07:13:30.843Z,29.70
2018-05-06T07:15:34.623Z,30.00
2018-05-06T07:17:38.551Z,29.90
2018-05-06T07:19:42.475Z,29.90
2018-05-06T07:21:48.003Z,29.70
2018-05-06T07:23:52.362Z,29.70
2018-05-06T07:25:57.267Z,29.50
2018-05-06T07:28:02.928Z,28.90
2018-05-06T07:30:07.288Z,29.70
2018-05-06T07:32:11.762Z,29.60
2018-05-06T07:34:15.662Z,29.40
2018-05-06T07:36:19.584Z,29.30
2018-05-06T07:38:24.277Z,28.90
2018-05-06T07:40:30.460Z,28.80
2018-05-06T07:42:34.445Z,29.20
2018-05-06T07:44:38.519Z,29.50
2018-05-06T07:46:42.703Z,29.20
2018-05-06T07:48:46.815Z,29.30
2018-05-06T07:50:51.469Z,29.70
2018-05-06T07:52:55.783Z,29.70
2018-05-06T07:55:00.636Z,28.90
2018-05-06T07:57:04.677Z,29.00
2018-05-06T07:59:08.610Z,29.10
2018-05-06T08:01:14.196Z,29.30
2018-05-06T08:03:18.852Z,29.50
2018-05-06T08:05:23.204Z,29.40
2018-05-06T08:07:27.024Z,29.30
2018-05-06T08:09:30.862Z,30.00
2018-05-06T08:11:38.409Z,30.30
2018-05-06T08:13:42.333Z,30.70
2018-05-06T08:15:46.367Z,30.10
2018-05-06T08:17:50.846Z,30.50
2018-05-06T08:19:56.074Z,30.10
2018-05-06T08:22:01.245Z,29.30
2018-05-06T08:24:05.387Z,29.10
2018-05-06T08:26:10.363Z,29.80
2018-05-06T08:28:14.850Z,29.70
2018-05-06T08:30:18.733Z,29.70
2018-05-06T08:32:23.342Z,30.10
2018-05-06T08:34:27.243Z,30.00
2018-05-06T08:36:34.908Z,29.50
2018-05-06T08:38:38.754Z,29.10
2018-05-06T08:40:42.735Z,29.50
2018-05-06T08:42:47.362Z,29.80
2018-05-06T08:44:51.489Z,30.00
2018-05-06T08:46:55.326Z,29.70
2018-05-06T08:48:59.461Z,29.40
2018-05-06T08:51:04.647Z,29.30
2018-05-06T08:53:09.139Z,29.70
2018-05-06T08:55:12.946Z,30.10
2018-05-06T08:57:16.822Z,28.70
2018-05-06T08:59:20.742Z,29.40
2018-05-06T09:01:24.996Z,29.60
2018-05-06T09:03:28.895Z,29.50
2018-05-06T09:05:32.759Z,29.00
2018-05-06T09:07:36.951Z,29.30
2018-05-06T09:09:40.861Z,29.10
2018-05-06T09:11:44.790Z,29.30
2018-05-06T09:13:49.303Z,29.50
2018-05-06T09:15:53.150Z,28.80
2018-05-06T09:17:58.687Z,29.20
2018-05-06T09:32:33.994Z,28.70
2018-05-06T09:34:38.237Z,29.40
2018-05-06T09:36:42.944Z,28.60
2018-05-06T09:38:47.114Z,28.50
2018-05-06T09:40:51.009Z,28.10
2018-05-06T09:42:54.902Z,28.60
2018-05-06T09:44:59.492Z,29.30
2018-05-06T09:47:06.078Z,29.30
2018-05-06T09:49:10.112Z,28.70
2018-05-06T09:51:14.082Z,27.90
2018-05-06T09:53:18.392Z,28.10
2018-05-06T09:55:23.468Z,27.70
2018-05-06T09:57:28.421Z,27.70
2018-05-06T09:59:34.157Z,26.90
2018-05-06T10:01:38.116Z,26.90
2018-05-06T10:03:43.357Z,27.10
2018-05-06T10:05:47.555Z,27.30
2018-05-06T10:07:51.530Z,28.20
2018-05-06T10:09:55.397Z,27.70
2018-05-06T10:12:01.226Z,27.80
2018-05-06T10:14:05.145Z,27.70
2018-05-06T10:16:10.142Z,27.90
2018-05-06T10:18:14.274Z,27.30
2018-05-06T10:20:18.142Z,26.90
2018-05-06T10:22:22.028Z,27.20
2018-05-06T10:24:26.238Z,27.20
2018-05-06T10:26:30.095Z,27.30
2018-05-06T10:28:33.930Z,27.20
2018-05-06T10:30:38.932Z,26.00
2018-05-06T10:32:42.754Z,26.00
2018-05-06T10:34:47.611Z,25.60
2018-05-06T10:36:52.937Z,25.50
2018-05-06T10:38:57.493Z,24.50
2018-05-06T10:41:02.321Z,24.40
2018-05-06T10:43:07.397Z,23.90
2018-05-06T10:45:11.688Z,23.40
2018-05-06T10:47:18.068Z,24.00
2018-05-06T10:49:22.298Z,23.90
2018-05-06T10:51:26.143Z,23.40
2018-05-06T10:53:29.961Z,23.60
2018-05-06T10:55:34.240Z,23.00
2018-05-06T10:57:38.108Z,23.20
2018-05-06T10:59:42.209Z,23.20
2018-05-06T11:01:46.326Z,23.00
2018-05-06T11:03:50.273Z,22.60
2018-05-06T11:05:54.127Z,23.30
2018-05-06T11:07:59.171Z,24.40
2018-05-06T11:10:04.004Z,24.90
2018-05-06T11:12:07.856Z,24.80
2018-05-06T11:14:11.995Z,24.10
2018-05-06T11:16:15.849Z,23.90
2018-05-06T11:18:19.951Z,22.90
2018-05-06T11:20:24.302Z,23.70
2018-05-06T11:22:28.236Z,22.70
2018-05-06T11:24:32.164Z,22.70
2018-05-06T11:26:36.110Z,22.70
2018-05-06T11:28:40.069Z,23.30
2018-05-06T11:30:43.991Z,23.20
2018-05-06T11:32:48.403Z,23.20
2018-05-06T11:34:52.354Z,23.00
2018-05-06T11:36:56.265Z,22.70
2018-05-06T11:39:00.773Z,22.80
2018-05-06T11:41:04.928Z,22.80
2018-05-06T11:43:12.368Z,23.10
2018-05-06T11:45:20.118Z,23.10
2018-05-06T11:47:28.820Z,22.20
2018-05-06T11:49:33.765Z,22.20
2018-05-06T11:51:39.170Z,22.70
2018-05-06T11:53:43.396Z,22.70
2018-05-06T11:55:47.682Z,22.50
2018-05-06T11:57:52.420Z,23.40
2018-05-06T11:59:57.460Z,24.50
2018-05-06T12:02:02.268Z,23.30
2018-05-06T12:04:09.225Z,23.50
2018-05-06T12:06:13.808Z,24.00
2018-05-06T12:08:17.638Z,24.10
2018-05-06T12:10:22.634Z,23.20
2018-05-06T12:12:26.553Z,23.10
2018-05-06T12:14:30.465Z,22.60
2018-05-06T12:16:34.338Z,23.20
2018-05-06T12:18:39.056Z,22.70
2018-05-06T12:20:43.010Z,22.70
2018-05-06T12:22:47.364Z,22.70
2018-05-06T12:24:51.392Z,22.40
2018-05-06T12:26:55.449Z,22.70
2018-05-06T12:29:00.437Z,23.10
2018-05-06T12:31:06.307Z,23.00
2018-05-06T12:33:10.776Z,22.90
2018-05-06T12:35:14.968Z,23.60
2018-05-06T12:37:19.593Z,23.90
2018-05-06T12:39:23.453Z,23.20
2018-05-06T12:41:27.694Z,23.20
2018-05-06T12:43:32.052Z,22.90
2018-05-06T12:45:35.962Z,23.50
2018-05-06T12:47:40.143Z,23.00
2018-05-06T12:49:44.743Z,23.50
2018-05-06T12:51:50.493Z,23.50
2018-05-06T12:53:56.281Z,24.00
2018-05-06T12:56:02.198Z,22.60
2018-05-06T12:58:12.462Z,23.40
2018-05-06T13:00:20.615Z,23.40
2018-05-06T13:02:27.144Z,22.60
2018-05-06T13:04:31.061Z,22.70
2018-05-06T13:06:36.133Z,23.10
2018-05-06T13:08:44.852Z,22.70
2018-05-06T13:10:50.988Z,23.10
2018-05-06T13:12:57.490Z,22.80
2018-05-06T13:15:04.235Z,22.90
2018-05-06T13:17:11.194Z,23.10
2018-05-06T13:19:19.161Z,23.10
2018-05-06T13:21:29.265Z,22.40
2018-05-06T13:23:36.996Z,21.90
2018-05-06T13:25:49.098Z,21.00
2018-05-06T13:27:55.681Z,21.60
2018-05-06T13:30:08.639Z,21.50
2018-05-06T13:32:16.921Z,21.40
2018-05-06T13:34:21.755Z,21.00
2018-05-06T13:36:25.672Z,20.90
2018-05-06T13:38:30.139Z,20.90
2018-05-06T13:40:34.098Z,20.60
2018-05-06T13:42:38.017Z,20.80
2018-05-06T13:44:43.263Z,21.20
2018-05-06T13:46:47.315Z,20.30
2018-05-06T13:48:52.057Z,21.10
2018-05-06T13:50:56.732Z,21.10
2018-05-06T13:53:01.156Z,21.00
2018-05-06T13:55:05.754Z,20.60
2018-05-06T13:57:09.722Z,21.20
2018-05-06T13:59:15.611Z,18.90
2018-05-06T14:01:19.527Z,18.80
2018-05-06T14:03:23.998Z,19.00
2018-05-06T14:05:27.907Z,19.30
2018-05-06T14:07:32.600Z,19.70
2018-05-06T14:09:36.828Z,19.70
2018-05-06T14:11:40.878Z,19.60
2018-05-06T14:13:44.762Z,20.30
2018-05-06T14:15:49.008Z,20.50
2018-05-06T14:17:53.104Z,20.30
2018-05-06T14:19:56.952Z,20.20
2018-05-06T14:22:01.897Z,20.30
2018-05-06T14:24:05.926Z,20.40
2018-05-06T14:26:10.621Z,20.70
2018-05-06T14:28:14.511Z,20.70
2018-05-06T14:30:18.453Z,20.70
2018-05-06T14:32:23.157Z,20.30
2018-05-06T14:34:27.397Z,20.30
2018-05-06T14:36:32.132Z,19.80
2018-05-06T14:38:36.024Z,19.80
2018-05-06T14:40:40.930Z,19.00
2018-05-06T14:42:44.765Z,18.90
2018-05-06T14:44:49.487Z,18.90
2018-05-06T14:49:03.247Z,19.60
2018-05-06T14:51:07.092Z,19.60
2018-05-06T14:53:11.668Z,18.90
2018-05-06T14:55:16.556Z,19.30
2018-05-06T14:57:20.724Z,19.30
2018-05-06T14:59:25.051Z,18.70
2018-05-06T15:01:28.972Z,18.60
2018-05-06T15:03:32.930Z,18.50
2018-05-06T15:05:37.774Z,18.00
2018-05-06T15:07:42.426Z,18.00
2018-05-06T15:09:46.449Z,18.30
2018-05-06T15:11:50.925Z,18.30
2018-05-06T15:13:55.020Z,18.40
2018-05-06T15:15:59.686Z,18.60
2018-05-06T15:18:03.530Z,18.60
2018-05-06T15:20:08.149Z,17.90
2018-05-06T15:22:12.636Z,18.00
2018-05-06T15:24:18.869Z,18.00
2018-05-06T15:26:22.809Z,17.90
2018-05-06T15:28:26.740Z,17.60
2018-05-06T15:30:34.357Z,17.80
2018-05-06T15:32:39.057Z,18.40
2018-05-06T15:34:42.998Z,18.40
2018-05-06T15:36:47.109Z,19.00
2018-05-06T15:38:51.335Z,18.80
2018-05-06T15:40:55.303Z,18.60
2018-05-06T15:43:00.684Z,20.10
2018-05-06T15:45:06.081Z,19.70
2018-05-06T15:47:11.361Z,19.00
2018-05-06T15:49:16.274Z,19.00
2018-05-06T15:51:20.207Z,19.40
2018-05-06T15:53:24.835Z,20.20
2018-05-06T15:55:30.071Z,20.10
2018-05-06T15:57:34.044Z,20.50
2018-05-06T15:59:37.948Z,20.40
2018-05-06T16:01:42.476Z,20.30
2018-05-06T16:04:22.598Z,20.70
2018-05-06T16:06:26.562Z,20.40
2018-05-06T16:08:30.757Z,20.50
2018-05-06T16:10:36.808Z,21.40
2018-05-06T16:12:43.248Z,21.30
2018-05-06T16:14:50.350Z,21.20
2018-05-06T16:16:54.494Z,21.20
2018-05-06T16:18:58.374Z,21.40
2018-05-06T16:21:02.712Z,21.40
2018-05-06T16:23:06.613Z,21.60
2018-05-06T16:25:10.450Z,21.70
2018-05-06T16:27:15.648Z,21.90
2018-05-06T16:29:19.489Z,21.90
2018-05-06T16:31:23.424Z,22.20
2018-05-06T16:33:28.139Z,22.60
2018-05-06T16:35:31.962Z,22.60
2018-05-06T16:37:35.963Z,22.40
2018-05-06T16:39:41.999Z,22.40
2018-05-06T16:41:45.887Z,22.30
2018-05-06T16:43:49.861Z,22.40
2018-05-06T16:45:54.222Z,22.50
2018-05-06T16:47:58.118Z,22.80
2018-05-06T16:50:02.006Z,22.70
2018-05-06T16:52:06.232Z,22.70
2018-05-06T16:54:10.905Z,23.00
2018-05-06T16:56:14.805Z,23.70
2018-05-06T16:58:18.682Z,24.00
2018-05-06T17:00:23.350Z,24.10
2018-05-06T17:02:27.296Z,24.00
2018-05-06T17:04:31.942Z,24.20
2018-05-06T17:06:35.775Z,24.40
2018-05-06T17:08:39.667Z,24.30
2018-05-06T17:10:43.915Z,24.50
2018-05-06T17:12:47.792Z,24.80
2018-05-06T17:14:51.904Z,24.60
2018-05-06T17:16:57.122Z,24.40
2018-05-06T17:19:01.758Z,24.40
2018-05-06T17:21:06.476Z,24.40
2018-05-06T17:23:12.112Z,24.60
2018-05-06T17:25:16.780Z,24.90
2018-05-06T17:27:20.695Z,24.80
2018-05-06T17:29:24.967Z,24.80
2018-05-06T17:31:28.916Z,25.20
2018-05-06T17:33:32.925Z,25.50
2018-05-06T17:35:38.196Z,25.90
2018-05-06T17:37:42.176Z,25.80
2018-05-06T17:39:52.435Z,26.10
2018-05-06T17:41:57.691Z,26.70
2018-05-06T17:44:01.626Z,27.50
2018-05-06T17:46:06.281Z,29.00
2018-05-06T17:48:11.485Z,28.90
2018-05-06T17:50:15.955Z,29.50
2018-05-06T17:52:20.576Z,30.60
2018-05-06T17:54:24.457Z,30.70
2018-05-06T17:56:29.612Z,31.50
2018-05-06T17:58:33.635Z,31.50
2018-05-06T18:00:37.564Z,31.80
2018-05-06T18:02:41.854Z,32.30
2018-05-06T18:04:45.740Z,32.60
2018-05-06T18:06:49.844Z,33.00
2018-05-06T18:08:53.907Z,33.30
2018-05-06T18:10:58.178Z,33.60
2018-05-06T18:13:02.669Z,34.10
2018-05-06T18:15:07.838Z,34.10
2018-05-06T18:17:12.433Z,34.60
2018-05-06T18:19:17.325Z,34.90
2018-05-06T18:21:22.355Z,35.30
2018-05-06T18:23:27.063Z,35.60
2018-05-06T18:25:31.780Z,35.50
2018-05-06T18:27:36.028Z,35.50
2018-05-06T18:29:40.078Z,35.60
2018-05-06T18:31:45.538Z,36.00
2018-05-06T18:33:50.849Z,36.30
2018-05-06T18:35:56.476Z,36.30
2018-05-06T18:38:01.398Z,36.40
2018-05-06T18:40:07.097Z,36.60
2018-05-06T18:42:12.441Z,36.70
2018-05-06T18:44:17.417Z,37.00
2018-05-06T18:46:23.725Z,37.00
2018-05-06T18:48:27.557Z,37.40
2018-05-06T18:50:32.355Z,37.60
2018-05-06T18:52:36.571Z,37.60
2018-05-06T18:54:40.474Z,38.00
2018-05-06T18:56:44.398Z,38.30
2018-05-06T18:58:48.289Z,38.50
2018-05-06T19:00:52.394Z,38.50
2018-05-06T19:02:56.255Z,38.60
2018-05-06T19:05:00.170Z,38.70
2018-05-06T19:07:05.719Z,39.00
2018-05-06T19:09:11.319Z,38.90
2018-05-06T19:11:15.858Z,38.90
2018-05-06T19:13:20.565Z,39.00
2018-05-06T19:15:24.779Z,39.00
2018-05-06T19:17:28.639Z,39.10
2018-05-06T19:19:32.529Z,39.00
2018-05-06T19:21:36.757Z,39.20
2018-05-06T19:23:40.722Z,39.20
2018-05-06T19:25:45.494Z,39.20
2018-05-06T19:27:49.927Z,39.20
2018-05-06T19:29:54.341Z,39.30
2018-05-06T19:31:58.564Z,39.30
2018-05-06T19:34:02.909Z,39.40
2018-05-06T19:36:08.793Z,39.70
2018-05-06T19:38:13.592Z,39.70
2018-05-06T19:40:17.866Z,39.80
2018-05-06T19:42:21.784Z,39.80
2018-05-06T19:44:26.716Z,40.00
2018-05-06T19:46:30.976Z,40.20
2018-05-06T19:48:34.953Z,40.50
2018-05-06T19:50:38.779Z,40.50
2018-05-06T19:52:43.970Z,40.60
2018-05-06T19:54:47.789Z,40.80
2018-05-06T19:56:52.206Z,40.90
2018-05-06T19:58:56.621Z,40.80
2018-05-06T20:01:00.594Z,40.80
2018-05-06T20:03:04.880Z,40.90
2018-05-06T20:05:09.521Z,41.00
2018-05-06T20:07:14.266Z,41.00
2018-05-06T20:09:18.204Z,41.20
2018-05-06T20:11:22.052Z,41.30
2018-05-06T20:13:26.287Z,41.30
2018-05-06T20:15:30.238Z,41.30
2018-05-06T20:17:34.994Z,42.20
2018-05-06T20:19:38.920Z,41.40
2018-05-06T20:21:42.870Z,41.60
2018-05-06T20:23:46.803Z,41.60
2018-05-06T20:25:51.193Z,41.70
2018-05-06T20:27:55.239Z,41.60
2018-05-06T20:29:59.183Z,41.60
2018-05-06T20:32:05.542Z,41.60
2018-05-06T20:34:09.421Z,41.90
2018-05-06T20:36:13.305Z,41.90
2018-05-06T20:38:19.639Z,42.60
2018-05-06T20:40:24.257Z,42.10
2018-05-06T20:42:28.871Z,42.10
2018-05-06T20:44:32.789Z,42.20
2018-05-06T20:46:37.467Z,42.30
2018-05-06T20:48:41.349Z,42.20
2018-05-06T20:50:45.563Z,42.30
2018-05-06T20:52:49.633Z,42.30
2018-05-06T20:54:53.730Z,42.50
2018-05-06T20:56:58.056Z,42.40
2018-05-06T20:59:02.160Z,42.50
2018-05-06T21:01:07.094Z,42.70
2018-05-06T21:03:12.402Z,42.70
2018-05-06T21:05:16.335Z,42.60
2018-05-06T21:07:20.206Z,42.70
2018-05-06T21:09:24.066Z,42.70
2018-05-06T21:11:28.700Z,42.70
2018-05-06T21:13:33.520Z,42.90
2018-05-06T21:15:37.419Z,42.80
2018-05-06T21:17:41.317Z,42.80
2018-05-06T21:19:45.176Z,43.00
2018-05-06T21:21:50.423Z,43.10
2018-05-06T21:23:54.509Z,43.10
2018-05-06T21:25:58.706Z,43.30
2018-05-06T21:28:03.815Z,43.50
2018-05-06T21:30:07.663Z,43.40
2018-05-06T21:32:12.286Z,44.30
2018-05-06T21:34:16.656Z,43.60
2018-05-06T21:36:21.330Z,43.90
2018-05-06T21:38:25.291Z,43.90
2018-05-06T21:40:29.234Z,43.90
2018-05-06T21:42:33.088Z,44.00
2018-05-06T21:44:36.989Z,44.10
2018-05-06T21:46:41.631Z,44.30
2018-05-06T21:48:46.275Z,44.70
2018-05-06T21:50:50.915Z,44.60
2018-05-06T21:52:56.427Z,44.70
2018-05-06T21:55:00.392Z,44.70
2018-05-06T21:57:04.276Z,44.70
2018-05-06T21:59:09.868Z,45.50
2018-05-06T22:01:13.868Z,44.90
2018-05-06T22:03:17.714Z,45.00
2018-05-06T22:05:22.326Z,45.30
2018-05-06T22:07:27.579Z,45.40
2018-05-06T22:09:32.209Z,45.40
2018-05-06T22:11:36.470Z,45.40
2018-05-06T22:13:40.407Z,45.50
2018-05-06T22:15:45.091Z,45.60
2018-05-06T22:17:50.417Z,45.60
2018-05-06T22:19:54.908Z,45.60
2018-05-06T22:22:00.330Z,46.00
2018-05-06T22:24:05.284Z,45.90
2018-05-06T22:26:09.131Z,45.90
2018-05-06T22:28:12.922Z,45.90
2018-05-06T22:30:16.738Z,45.90
2018-05-06T22:32:20.638Z,46.00
2018-05-06T22:34:24.606Z,46.10
2018-05-06T22:36:28.738Z,46.00
2018-05-06T22:38:32.635Z,46.00
2018-05-06T22:40:36.424Z,46.10
2018-05-06T22:42:40.581Z,46.10
2018-05-06T22:44:44.456Z,46.10
2018-05-06T22:46:48.309Z,46.10
2018-05-06T22:48:52.549Z,46.10
2018-05-06T22:50:56.917Z,46.10
2018-05-06T22:53:01.706Z,46.80
2018-05-06T22:55:05.623Z,46.10
2018-05-06T22:57:09.554Z,46.10
2018-05-06T22:59:16.436Z,46.10
2018-05-06T23:01:20.577Z,46.10
2018-05-06T23:03:24.450Z,46.30
2018-05-06T23:05:28.314Z,46.70
2018-05-06T23:07:32.379Z,46.80
2018-05-06T23:09:36.781Z,46.80
2018-05-06T23:11:40.568Z,46.50
2018-05-06T23:13:44.774Z,47.10
2018-05-06T23:15:48.743Z,47.10
2018-05-06T23:17:52.704Z,47.10
2018-05-06T23:19:58.127Z,47.00
2018-05-06T23:22:02.034Z,47.60
2018-05-06T23:24:05.920Z,46.80
2018-05-06T23:26:10.038Z,46.60
2018-05-06T23:28:15.234Z,46.70
2018-05-06T23:30:25.998Z,46.80
2018-05-06T23:32:32.087Z,46.80
2018-05-06T23:34:36.122Z,46.70
2018-05-06T23:36:40.041Z,46.90
2018-05-06T23:38:44.234Z,46.80
2018-05-06T23:40:48.110Z,47.00
2018-05-06T23:42:51.891Z,46.70
2018-05-06T23:44:57.394Z,46.90
2018-05-06T23:47:01.337Z,46.80
2018-05-06T23:49:05.209Z,46.90
2018-05-06T23:51:09.084Z,46.80
2018-05-06T23:53:12.924Z,46.90
2018-05-06T23:55:16.771Z,47.00
2018-05-06T23:57:22.281Z,47.20
2018-05-06T23:59:26.211Z,47.20
